Flight Track Log - Related Links

Times and Time Zones

All times are in EDT time to prevent confusion due to time zone crossing. See the ASQ4231 flight status page for this flight to view local times or setup timezone preferences in your user account.

Time Position Orientation Groundspeed Altitude Reporting Facility
EDT Latitude Longitude Course Direction KTS MPH feet Rate Location/Type
Fri 04:36:00 PM 23.3388 -109.3419 62° Northeast  Level FlightAware Approximate
Fri 04:37:00 PM 23.3853 -109.2470 62° Northeast  Level FlightAware Approximate
Fri 04:38:00 PM 23.4319 -109.1520 62° Northeast  Level FlightAware Approximate
Fri 04:39:00 PM 23.4783 -109.0569 62° Northeast  Level FlightAware Approximate
Fri 04:40:00 PM 23.5247 -108.9618 62° Northeast  Level FlightAware Approximate
Fri 04:41:00 PM 23.5711 -108.8666 62° Northeast  Level FlightAware Approximate
Fri 04:42:00 PM 23.6174 -108.7713 62° Northeast  Level FlightAware Approximate
Fri 04:43:00 PM 23.6636 -108.6759 62° Northeast  Level FlightAware Approximate
Fri 04:44:00 PM 23.7098 -108.5805 62° Northeast  Level FlightAware Approximate
Fri 04:45:00 PM 23.7559 -108.4850 62° Northeast  Level FlightAware Approximate
Fri 04:46:00 PM 23.8020 -108.3895 62° Northeast  Level FlightAware Approximate
Fri 04:47:00 PM 23.8480 -108.2939 62° Northeast  Level FlightAware Approximate
Fri 04:48:00 PM 23.8939 -108.1982 62° Northeast  Level FlightAware Approximate
Fri 04:49:00 PM 23.9398 -108.1024 62° Northeast  Level FlightAware Approximate
Fri 04:50:00 PM 23.9856 -108.0066 62° Northeast  Level FlightAware Approximate
Fri 04:51:00 PM 24.0314 -107.9107 62° Northeast  Level FlightAware Approximate
Fri 04:52:00 PM 24.0771 -107.8148 62° Northeast  Level FlightAware Approximate
Fri 04:53:00 PM 24.1227 -107.7188 62° Northeast  Level FlightAware Approximate
Fri 04:54:00 PM 24.1683 -107.6227 63° Northeast  Level FlightAware Approximate
Fri 04:55:00 PM 24.2138 -107.5265 63° Northeast  Level FlightAware Approximate
Fri 04:56:00 PM 24.2570 -107.4355 62° Northeast  Level FlightAware Approximate
Fri 04:57:00 PM 24.3029 -107.3395 62° Northeast  Level FlightAware Approximate
Fri 04:58:00 PM 24.3488 -107.2434 62° Northeast  Level FlightAware Approximate
Fri 04:59:00 PM 24.3946 -107.1473 62° Northeast  Level FlightAware Approximate
Fri 05:00:00 PM 24.4404 -107.0511 62° Northeast  Level FlightAware Approximate
Fri 05:01:00 PM 24.4861 -106.9549 62° Northeast  Level FlightAware Approximate
Fri 05:02:00 PM 24.5317 -106.8585 62° Northeast  Level FlightAware Approximate
Fri 05:03:00 PM 24.5773 -106.7621 63° Northeast  Level FlightAware Approximate
Fri 05:04:00 PM 24.6228 -106.6657 63° Northeast  Level FlightAware Approximate
Fri 05:05:00 PM 24.6683 -106.5691 63° Northeast  Level FlightAware Approximate
Fri 05:06:00 PM 24.7137 -106.4725 63° Northeast  Level FlightAware Approximate
Fri 05:07:00 PM 24.7590 -106.3758 63° Northeast  Level FlightAware Approximate
Fri 05:08:00 PM 24.8043 -106.2790 63° Northeast  Level FlightAware Approximate
Fri 05:09:00 PM 24.8495 -106.1822 63° Northeast  Level FlightAware Approximate
Fri 05:10:00 PM 24.8946 -106.0853 63° Northeast  Level FlightAware Approximate
Fri 05:11:00 PM 24.9397 -105.9883 63° Northeast  Level FlightAware Approximate
Fri 05:12:00 PM 24.9847 -105.8913 63° Northeast  Level FlightAware Approximate
Fri 05:13:00 PM 25.0297 -105.7942 63° Northeast  Level FlightAware Approximate
Fri 05:14:00 PM 25.0746 -105.6970 63° Northeast  Level FlightAware Approximate
Fri 05:15:00 PM 25.1194 -105.5998 63° Northeast  Level FlightAware Approximate
Fri 05:16:00 PM 25.1648 -105.5028 62° Northeast  Level FlightAware Approximate
Fri 05:17:00 PM 25.2116 -105.4066 62° Northeast  Level FlightAware Approximate
Fri 05:18:00 PM 25.2583 -105.3103 62° Northeast  Level FlightAware Approximate
Fri 05:19:00 PM 25.3049 -105.2139 62° Northeast  Level FlightAware Approximate
Fri 05:20:00 PM 25.3514 -105.1175 62° Northeast  Level FlightAware Approximate
Fri 05:21:00 PM 25.3979 -105.0210 62° Northeast  Level FlightAware Approximate
Fri 05:22:00 PM 25.4421 -104.9231 64° Northeast  Level FlightAware Approximate
Fri 05:23:00 PM 25.4861 -104.8251 64° Northeast  Level FlightAware Approximate
Fri 05:24:00 PM 25.5300 -104.7270 64° Northeast  Level FlightAware Approximate
Fri 05:25:00 PM 25.5739 -104.6288 64° Northeast  Level FlightAware Approximate
Fri 05:26:00 PM 25.6177 -104.5306 64° Northeast  Level FlightAware Approximate
Fri 05:27:00 PM 25.6614 -104.4323 64° Northeast  Level FlightAware Approximate
Fri 05:28:00 PM 25.7051 -104.3339 64° Northeast  Level FlightAware Approximate
Fri 05:29:00 PM 25.7487 -104.2355 64° Northeast  Level FlightAware Approximate
Fri 05:30:00 PM 25.7922 -104.1370 64° Northeast  Level FlightAware Approximate
Fri 05:31:00 PM 25.8357 -104.0384 64° Northeast  Level FlightAware Approximate
Fri 05:32:00 PM 25.8791 -103.9397 64° Northeast  Level FlightAware Approximate
Fri 05:33:00 PM 25.9224 -103.8410 64° Northeast  Level FlightAware Approximate
Fri 05:34:00 PM 25.9657 -103.7422 64° Northeast  Level FlightAware Approximate
Fri 05:35:00 PM 26.0089 -103.6433 64° Northeast  Level FlightAware Approximate
Fri 05:36:00 PM 26.0520 -103.5443 64° Northeast  Level FlightAware Approximate
Fri 05:37:00 PM 26.0951 -103.4453 64° Northeast  Level FlightAware Approximate
Fri 05:38:00 PM 26.1381 -103.3462 64° Northeast  Level FlightAware Approximate
Fri 05:39:00 PM 26.1810 -103.2470 64° Northeast  Level FlightAware Approximate
Fri 05:40:00 PM 26.2239 -103.1478 64° Northeast  Level FlightAware Approximate
Fri 05:41:00 PM 26.2667 -103.0485 64° Northeast  Level FlightAware Approximate
Fri 05:42:00 PM 26.3094 -102.9491 64° Northeast  Level FlightAware Approximate
Fri 05:43:00 PM 26.3521 -102.8496 64° Northeast  Level FlightAware Approximate
Fri 05:44:00 PM 26.3946 -102.7501 64° Northeast  Level FlightAware Approximate
Fri 05:45:00 PM 26.4372 -102.6505 64° Northeast  Level FlightAware Approximate
Fri 05:46:00 PM 26.4796 -102.5508 65° Northeast  Level FlightAware Approximate
Fri 05:47:00 PM 26.5220 -102.4510 65° Northeast  Level FlightAware Approximate
Fri 05:48:00 PM 26.5643 -102.3512 65° Northeast  Level FlightAware Approximate
Fri 05:49:00 PM 26.6066 -102.2513 65° Northeast  Level FlightAware Approximate
Fri 05:50:00 PM 26.6487 -102.1513 65° Northeast  Level FlightAware Approximate
Fri 05:51:00 PM 26.6908 -102.0512 65° Northeast  Level FlightAware Approximate
Fri 05:52:00 PM 26.7329 -101.9511 65° Northeast  Level FlightAware Approximate
Fri 05:53:00 PM 26.7773 -101.8523 63° Northeast  Level FlightAware Approximate
Fri 05:54:00 PM 26.8218 -101.7534 63° Northeast  Level FlightAware Approximate
Fri 05:55:00 PM 26.8661 -101.6544 63° Northeast  Level FlightAware Approximate
Fri 05:56:00 PM 26.9104 -101.5554 63° Northeast  Level FlightAware Approximate
Fri 05:57:00 PM 26.9528 -101.4554 74° East  Level FlightAware Approximate
Fri 05:58:00 PM 26.9796 -101.3487 74° East  Level FlightAware Approximate
Fri 05:59:00 PM 27.0062 -101.2419 74° East  Level FlightAware Approximate
Fri 06:00:00 PM 27.0328 -101.1350 74° East  Level FlightAware Approximate
Fri 06:01:00 PM 27.0593 -101.0282 74° East  Level FlightAware Approximate
Fri 06:02:00 PM 27.0857 -100.9212 74° East  Level FlightAware Approximate
Fri 06:03:00 PM 27.1121 -100.8142 75° East  Level FlightAware Approximate
Fri 06:03:21 PM 27.0386 -101.1536 74° East 481 554 35,000  Level Houston Center
Fri 06:04:00 PM 27.1383 -100.7072 75° East  Level FlightAware Approximate
Fri 06:04:23 PM 27.0839 -100.9814 74° East 480 552 35,000  Level Houston Center
Fri 06:05:00 PM 27.1645 -100.6001 75° East  Level FlightAware Approximate
Fri 06:05:25 PM 27.1203 -100.8369 74° East 480 552 35,000  Level Houston Center
Fri 06:06:00 PM 27.1906 -100.4929 75° East  Level FlightAware Approximate
Fri 06:06:27 PM 27.1569 -100.6933 74° East 481 554 35,000  Level Houston Center
Fri 06:07:00 PM 27.2166 -100.3857 75° East  Level FlightAware Approximate
Fri 06:07:29 PM 27.1933 -100.5492 74° East 481 554 35,000  Level Houston Center
Fri 06:08:00 PM 27.2428 -100.2785 74° East  Level FlightAware Approximate
Fri 06:08:31 PM 27.2306 -100.4050 74° East 480 552 35,000  Level Houston Center
Fri 06:09:33 PM 27.2667 -100.2594 74° East 485 558 35,000  Level Houston Center
Fri 06:10:35 PM 27.3106 -100.0867 74° East 480 552 35,000  Level Houston Center
Fri 06:11:37 PM 27.3472 -99.9408 74° East 484 557 35,000  Level Houston Center
Fri 06:12:40 PM 27.3822 -99.7950 75° East 482 555 35,000  Level Houston Center
Fri 06:13:42 PM 27.4192 -99.6506 74° East 483 556 35,000  Level Houston Center
Fri 06:14:44 PM 27.4550 -99.5047 74° East 483 556 35,000  Level Houston Center
Fri 06:15:46 PM 27.4922 -99.3606 74° East 481 554 35,000  Level Houston Center
Fri 06:16:48 PM 27.5564 -99.2289 61° Northeast 476 548 35,000  Level Houston Center
Fri 06:17:50 PM 27.6561 -99.0803 53° Northeast 484 557 35,000  Level Houston Center
Fri 06:18:52 PM 27.7383 -98.9564 53° Northeast 485 558 35,000  Level Houston Center
Fri 06:19:54 PM 27.8186 -98.8333 54° Northeast 483 556 35,000  Level Houston Center
Fri 06:20:56 PM 27.8989 -98.7133 53° Northeast 479 551 35,000  Level Houston Center
Fri 06:21:58 PM 27.9789 -98.5931 53° Northeast 478 550 35,000  Level Houston Center
Fri 06:23:01 PM 28.0586 -98.4742 53° Northeast 476 548 35,000  Level Houston Center
Fri 06:24:02 PM 28.1381 -98.3536 53° Northeast 476 548 35,000  Level Houston Center
Fri 06:25:04 PM 28.2325 -98.2100 53° Northeast 474 545 35,000  Level Houston Center
Fri 06:26:07 PM 28.3108 -98.0897 53° Northeast 474 545 35,000  Level Houston Center
Fri 06:27:09 PM 28.3906 -97.9683 53° Northeast 475 547 35,000  Level Houston Center
Fri 06:28:11 PM 28.4686 -97.8478 54° Northeast 475 547 35,000  Level Houston Center
Fri 06:29:13 PM 28.5469 -97.7281 53° Northeast 473 544 35,000  Level Houston Center
Fri 06:30:15 PM 28.6264 -97.6067 53° Northeast 479 551 35,000  Level Houston Center
Fri 06:31:17 PM 28.7208 -97.4622 53° Northeast 476 548 35,000 -774 Level Houston Center
Fri 06:32:19 PM 28.7989 -97.3417 54° Northeast 474 545 33,400 -1,790 Descending Houston Center
Fri 06:33:21 PM 28.8747 -97.2236 54° Northeast 466 536 31,300 -2,129 Descending Houston Center
Fri 06:34:23 PM 28.9519 -97.1033 54° Northeast 471 542 29,000 -2,274 Descending Houston Center
Fri 06:35:25 PM 29.0283 -96.9828 54° Northeast 472 543 26,600 -2,613 Descending Houston Center
Fri 06:36:27 PM 29.1192 -96.8428 53° Northeast 463 533 23,600 -2,613 Descending Houston Center
Fri 06:37:29 PM 29.1881 -96.7328 54° Northeast 438 504 21,200 -2,352 Descending Houston Center
Fri 06:38:32 PM 29.2575 -96.6242 54° Northeast 432 497 18,700 -2,400 Descending Houston Center
Fri 06:39:09 PM 29.3031 -96.5506 55° Northeast 420 483 17,200 -2,182 Descending Houston Center
Fri 06:40:22 PM 29.3831 -96.4269 53° Northeast 402 463 14,700 -2,015 Descending Houston Center
Fri 06:41:23 PM 29.4533 -96.3161 54° Northeast 397 457 12,700 -2,098 Descending Houston Center
Fri 06:42:25 PM 29.5142 -96.2181 54° Northeast 379 436 10,400 -1,174 Descending Houston Center
Fri 06:43:41 PM 29.5767 -96.1053 57° Northeast 350 403 10,000 -362 Descending Houston Center
Fri 06:44:21 PM 29.6083 -96.0419 60° Northeast 309 356 9,700 -484 Descending Houston Center
Fri 06:45:45 PM 29.7025 -95.9719 33° Northeast 299 344 9,000 -541 Descending Houston Center
Fri 06:46:23 PM 29.7492 -95.9489 23° Northeast 288 331 8,600 -848 Descending Houston Center
Fri 06:47:24 PM 29.8214 -95.9094 25° Northeast 286 329 7,600 -787 Descending Houston Center
Fri 06:48:25 PM 29.8875 -95.8753 24° Northeast 247 284 7,000 -295 Descending Houston Center
Fri 06:49:26 PM 29.9539 -95.8411 24° Northeast 248 285 7,000 -422 Level Houston Center
Fri 06:50:33 PM 29.9917 -95.7692 59° Northeast 238 274 6,100 -844 Descending Houston Center
Fri 06:51:34 PM 29.9914 -95.6944 90° East 228 262 5,200 -821 Descending Houston Center
Fri 06:52:30 PM 29.9936 -95.6267 88° East 232 267 4,500 -974 Descending Houston Center
Fri 06:53:31 PM 29.9931 -95.5497 90° East 224 258 3,300 -1,121 Descending Houston Center
Fri 06:54:01 PM 29.9933 -95.5178 89° East 228 262 2,800 -1,000 Descending Houston Center

Login

Don't have an account? Register now (free) for customized features, flight alerts, and more!